sensor_id;sensor_type;location;lat;lon;timestamp;temperature;humidity
69418;DHT22;56610;48.872;2.400;2023-09-19T00:02:14;19.90;99.90
69418;DHT22;56610;48.872;2.400;2023-09-19T00:04:39;19.90;99.90
69418;DHT22;56610;48.872;2.400;2023-09-19T00:07:05;19.80;99.90
69418;DHT22;56610;48.872;2.400;2023-09-19T00:09:31;19.90;99.90
69418;DHT22;56610;48.872;2.400;2023-09-19T00:12:04;20.00;99.90
69418;DHT22;56610;48.872;2.400;2023-09-19T00:14:30;20.00;99.90
69418;DHT22;56610;48.872;2.400;2023-09-19T00:16:58;19.90;99.90
69418;DHT22;56610;48.872;2.400;2023-09-19T00:19:26;19.90;99.90
69418;DHT22;56610;48.872;2.400;2023-09-19T00:21:51;19.70;99.90
69418;DHT22;56610;48.872;2.400;2023-09-19T00:24:18;19.70;99.90
69418;DHT22;56610;48.872;2.400;2023-09-19T00:26:44;19.60;99.90
69418;DHT22;56610;48.872;2.400;2023-09-19T00:29:12;19.70;99.90
69418;DHT22;56610;48.872;2.400;2023-09-19T00:31:43;19.60;99.90
69418;DHT22;56610;48.872;2.400;2023-09-19T00:34:09;19.50;99.90
69418;DHT22;56610;48.872;2.400;2023-09-19T00:36:36;19.50;99.90
69418;DHT22;56610;48.872;2.400;2023-09-19T00:39:04;19.50;99.90
69418;DHT22;56610;48.872;2.400;2023-09-19T00:41:31;19.50;99.90
69418;DHT22;56610;48.872;2.400;2023-09-19T00:43:57;19.50;99.90
69418;DHT22;56610;48.872;2.400;2023-09-19T00:46:22;19.60;99.90
69418;DHT22;56610;48.872;2.400;2023-09-19T00:48:48;19.60;99.90
69418;DHT22;56610;48.872;2.400;2023-09-19T00:51:15;19.60;99.90
69418;DHT22;56610;48.872;2.400;2023-09-19T00:53:45;19.70;99.90
69418;DHT22;56610;48.872;2.400;2023-09-19T00:56:12;19.80;99.90
69418;DHT22;56610;48.872;2.400;2023-09-19T00:58:38;19.70;99.90
69418;DHT22;56610;48.872;2.400;2023-09-19T01:01:04;19.70;99.90
69418;DHT22;56610;48.872;2.400;2023-09-19T01:03:33;19.80;99.90
69418;DHT22;56610;48.872;2.400;2023-09-19T01:05:59;19.70;99.90
69418;DHT22;56610;48.872;2.400;2023-09-19T01:08:26;19.60;99.90
69418;DHT22;56610;48.872;2.400;2023-09-19T01:11:33;19.60;99.90
69418;DHT22;56610;48.872;2.400;2023-09-19T01:14:20;19.60;99.90
69418;DHT22;56610;48.872;2.400;2023-09-19T01:17:05;19.30;99.90
69418;DHT22;56610;48.872;2.400;2023-09-19T01:20:03;19.30;99.90
69418;DHT22;56610;48.872;2.400;2023-09-19T01:28:06;19.40;99.90
69418;DHT22;56610;48.872;2.400;2023-09-19T01:30:35;19.50;99.90
69418;DHT22;56610;48.872;2.400;2023-09-19T01:33:05;19.50;99.90
69418;DHT22;56610;48.872;2.400;2023-09-19T01:35:31;19.60;99.90
69418;DHT22;56610;48.872;2.400;2023-09-19T01:37:58;19.50;99.90
69418;DHT22;56610;48.872;2.400;2023-09-19T01:40:24;19.50;99.90
69418;DHT22;56610;48.872;2.400;2023-09-19T01:43:27;19.50;99.90
69418;DHT22;56610;48.872;2.400;2023-09-19T01:46:25;19.50;99.90
69418;DHT22;56610;48.872;2.400;2023-09-19T01:49:09;19.50;99.90
69418;DHT22;56610;48.872;2.400;2023-09-19T01:51:52;19.50;99.90
69418;DHT22;56610;48.872;2.400;2023-09-19T01:54:26;19.40;99.90
69418;DHT22;56610;48.872;2.400;2023-09-19T01:57:26;19.40;99.90
69418;DHT22;56610;48.872;2.400;2023-09-19T02:00:07;19.30;99.90
69418;DHT22;56610;48.872;2.400;2023-09-19T02:02:37;19.40;99.90
69418;DHT22;56610;48.872;2.400;2023-09-19T02:05:04;19.30;99.90
69418;DHT22;56610;48.872;2.400;2023-09-19T02:07:30;19.30;99.90
69418;DHT22;56610;48.872;2.400;2023-09-19T02:09:57;19.30;99.90
69418;DHT22;56610;48.872;2.400;2023-09-19T02:12:25;19.30;99.90
69418;DHT22;56610;48.872;2.400;2023-09-19T02:14:51;19.30;99.90
69418;DHT22;56610;48.872;2.400;2023-09-19T02:17:16;19.30;99.90
69418;DHT22;56610;48.872;2.400;2023-09-19T02:19:43;19.30;99.90
69418;DHT22;56610;48.872;2.400;2023-09-19T02:22:09;19.20;99.90
69418;DHT22;56610;48.872;2.400;2023-09-19T02:24:38;19.20;99.90
69418;DHT22;56610;48.872;2.400;2023-09-19T02:27:04;19.30;99.90
69418;DHT22;56610;48.872;2.400;2023-09-19T02:29:30;19.40;99.90
69418;DHT22;56610;48.872;2.400;2023-09-19T02:31:56;19.40;99.90
69418;DHT22;56610;48.872;2.400;2023-09-19T02:34:22;19.30;99.90
69418;DHT22;56610;48.872;2.400;2023-09-19T02:36:48;19.30;99.90
69418;DHT22;56610;48.872;2.400;2023-09-19T02:39:14;19.30;99.90
69418;DHT22;56610;48.872;2.400;2023-09-19T02:41:39;19.30;99.90
69418;DHT22;56610;48.872;2.400;2023-09-19T02:44:07;19.20;99.90
69418;DHT22;56610;48.872;2.400;2023-09-19T02:46:34;19.20;99.90
69418;DHT22;56610;48.872;2.400;2023-09-19T02:49:01;19.10;99.90
69418;DHT22;56610;48.872;2.400;2023-09-19T02:51:30;19.10;99.90
69418;DHT22;56610;48.872;2.400;2023-09-19T02:53:56;19.20;99.90
69418;DHT22;56610;48.872;2.400;2023-09-19T02:56:21;19.20;99.90
69418;DHT22;56610;48.872;2.400;2023-09-19T02:58:48;19.20;99.90
69418;DHT22;56610;48.872;2.400;2023-09-19T03:04:36;19.10;99.90
69418;DHT22;56610;48.872;2.400;2023-09-19T03:07:01;19.00;99.90
69418;DHT22;56610;48.872;2.400;2023-09-19T03:09:29;18.90;99.90
69418;DHT22;56610;48.872;2.400;2023-09-19T03:11:55;18.90;99.90
69418;DHT22;56610;48.872;2.400;2023-09-19T03:14:20;19.00;99.90
69418;DHT22;56610;48.872;2.400;2023-09-19T03:16:46;19.00;99.90
69418;DHT22;56610;48.872;2.400;2023-09-19T03:19:12;19.00;99.90
69418;DHT22;56610;48.872;2.400;2023-09-19T03:21:37;19.00;99.90
69418;DHT22;56610;48.872;2.400;2023-09-19T03:24:04;18.90;99.90
69418;DHT22;56610;48.872;2.400;2023-09-19T03:26:30;18.90;99.90
69418;DHT22;56610;48.872;2.400;2023-09-19T03:28:55;18.90;99.90
69418;DHT22;56610;48.872;2.400;2023-09-19T03:31:21;19.00;99.90
69418;DHT22;56610;48.872;2.400;2023-09-19T03:33:46;19.00;99.90
69418;DHT22;56610;48.872;2.400;2023-09-19T03:36:12;18.90;99.90
69418;DHT22;56610;48.872;2.400;2023-09-19T03:38:38;18.90;99.90
69418;DHT22;56610;48.872;2.400;2023-09-19T03:41:04;18.90;99.90
69418;DHT22;56610;48.872;2.400;2023-09-19T03:43:31;18.80;99.90
69418;DHT22;56610;48.872;2.400;2023-09-19T03:46:01;18.80;99.90
69418;DHT22;56610;48.872;2.400;2023-09-19T03:48:29;18.80;99.90
69418;DHT22;56610;48.872;2.400;2023-09-19T03:50:55;18.80;99.90
69418;DHT22;56610;48.872;2.400;2023-09-19T03:53:22;18.90;99.90
69418;DHT22;56610;48.872;2.400;2023-09-19T03:55:47;18.80;99.90
69418;DHT22;56610;48.872;2.400;2023-09-19T03:58:13;18.80;99.90
69418;DHT22;56610;48.872;2.400;2023-09-19T04:00:39;18.80;99.90
69418;DHT22;56610;48.872;2.400;2023-09-19T04:03:04;18.80;99.90
69418;DHT22;56610;48.872;2.400;2023-09-19T04:05:32;18.70;99.90
69418;DHT22;56610;48.872;2.400;2023-09-19T04:07:58;18.70;99.90
69418;DHT22;56610;48.872;2.400;2023-09-19T04:10:24;18.70;99.90
69418;DHT22;56610;48.872;2.400;2023-09-19T04:12:53;18.70;99.90
69418;DHT22;56610;48.872;2.400;2023-09-19T04:15:20;18.80;99.90
69418;DHT22;56610;48.872;2.400;2023-09-19T04:17:48;18.70;99.90
69418;DHT22;56610;48.872;2.400;2023-09-19T04:20:13;18.70;99.90
69418;DHT22;56610;48.872;2.400;2023-09-19T04:22:39;18.80;99.90
69418;DHT22;56610;48.872;2.400;2023-09-19T04:25:05;18.80;99.90
69418;DHT22;56610;48.872;2.400;2023-09-19T04:27:32;18.80;99.90
69418;DHT22;56610;48.872;2.400;2023-09-19T04:29:58;18.90;99.90
69418;DHT22;56610;48.872;2.400;2023-09-19T04:32:28;18.90;99.90
69418;DHT22;56610;48.872;2.400;2023-09-19T04:34:53;18.90;99.90
69418;DHT22;56610;48.872;2.400;2023-09-19T04:37:19;18.90;99.90
69418;DHT22;56610;48.872;2.400;2023-09-19T04:39:44;18.80;99.90
69418;DHT22;56610;48.872;2.400;2023-09-19T04:42:13;18.80;99.90
69418;DHT22;56610;48.872;2.400;2023-09-19T04:44:40;18.90;99.90
69418;DHT22;56610;48.872;2.400;2023-09-19T04:47:05;18.90;99.90
69418;DHT22;56610;48.872;2.400;2023-09-19T04:49:31;18.80;99.90
69418;DHT22;56610;48.872;2.400;2023-09-19T04:51:57;18.80;99.90
69418;DHT22;56610;48.872;2.400;2023-09-19T04:54:22;18.70;99.90
69418;DHT22;56610;48.872;2.400;2023-09-19T04:56:48;18.80;99.90
69418;DHT22;56610;48.872;2.400;2023-09-19T04:59:14;18.90;99.90
69418;DHT22;56610;48.872;2.400;2023-09-19T05:01:40;18.90;99.90
69418;DHT22;56610;48.872;2.400;2023-09-19T05:04:06;18.80;99.90
69418;DHT22;56610;48.872;2.400;2023-09-19T05:06:31;18.90;99.90
69418;DHT22;56610;48.872;2.400;2023-09-19T05:08:58;18.80;99.90
69418;DHT22;56610;48.872;2.400;2023-09-19T05:11:25;18.60;99.90
69418;DHT22;56610;48.872;2.400;2023-09-19T05:13:51;18.60;99.90
69418;DHT22;56610;48.872;2.400;2023-09-19T05:16:18;18.50;99.90
69418;DHT22;56610;48.872;2.400;2023-09-19T05:18:43;18.50;99.90
69418;DHT22;56610;48.872;2.400;2023-09-19T05:21:09;18.40;99.90
69418;DHT22;56610;48.872;2.400;2023-09-19T05:23:34;18.30;99.90
69418;DHT22;56610;48.872;2.400;2023-09-19T05:26:32;18.40;99.90
69418;DHT22;56610;48.872;2.400;2023-09-19T05:28:58;18.50;99.90
69418;DHT22;56610;48.872;2.400;2023-09-19T05:31:23;18.60;99.90
69418;DHT22;56610;48.872;2.400;2023-09-19T05:33:51;18.60;99.90
69418;DHT22;56610;48.872;2.400;2023-09-19T05:36:17;18.60;99.90
69418;DHT22;56610;48.872;2.400;2023-09-19T05:38:43;18.50;99.90
69418;DHT22;56610;48.872;2.400;2023-09-19T05:41:10;18.60;99.90
69418;DHT22;56610;48.872;2.400;2023-09-19T05:43:39;18.70;99.90
69418;DHT22;56610;48.872;2.400;2023-09-19T05:46:06;18.60;99.90
69418;DHT22;56610;48.872;2.400;2023-09-19T05:48:33;18.70;99.90
69418;DHT22;56610;48.872;2.400;2023-09-19T05:50:59;18.70;99.90
69418;DHT22;56610;48.872;2.400;2023-09-19T05:53:27;18.70;99.90
69418;DHT22;56610;48.872;2.400;2023-09-19T05:55:52;18.70;99.90
69418;DHT22;56610;48.872;2.400;2023-09-19T05:58:19;18.70;99.90
69418;DHT22;56610;48.872;2.400;2023-09-19T06:00:45;18.70;99.90
69418;DHT22;56610;48.872;2.400;2023-09-19T06:03:12;18.70;99.90
69418;DHT22;56610;48.872;2.400;2023-09-19T06:05:39;18.80;99.90
69418;DHT22;56610;48.872;2.400;2023-09-19T06:08:07;18.70;99.90
69418;DHT22;56610;48.872;2.400;2023-09-19T06:10:34;18.70;99.90
69418;DHT22;56610;48.872;2.400;2023-09-19T06:13:01;18.60;99.90
69418;DHT22;56610;48.872;2.400;2023-09-19T06:15:29;18.50;99.90
69418;DHT22;56610;48.872;2.400;2023-09-19T06:17:58;18.50;99.90
69418;DHT22;56610;48.872;2.400;2023-09-19T06:20:25;18.50;99.90
69418;DHT22;56610;48.872;2.400;2023-09-19T06:22:52;18.40;99.90
69418;DHT22;56610;48.872;2.400;2023-09-19T06:25:18;18.20;99.90
69418;DHT22;56610;48.872;2.400;2023-09-19T06:27:51;18.20;99.90
69418;DHT22;56610;48.872;2.400;2023-09-19T06:30:19;18.20;99.90
69418;DHT22;56610;48.872;2.400;2023-09-19T06:32:45;18.20;99.90
69418;DHT22;56610;48.872;2.400;2023-09-19T06:35:12;18.20;99.90
69418;DHT22;56610;48.872;2.400;2023-09-19T06:37:39;18.20;99.90
69418;DHT22;56610;48.872;2.400;2023-09-19T06:40:07;18.30;99.90
69418;DHT22;56610;48.872;2.400;2023-09-19T06:45:43;18.50;99.90
69418;DHT22;56610;48.872;2.400;2023-09-19T06:48:11;18.40;99.90
69418;DHT22;56610;48.872;2.400;2023-09-19T06:50:37;18.50;99.90
69418;DHT22;56610;48.872;2.400;2023-09-19T06:53:04;18.40;99.90
69418;DHT22;56610;48.872;2.400;2023-09-19T06:55:29;18.40;99.90
69418;DHT22;56610;48.872;2.400;2023-09-19T06:57:57;18.50;99.90
69418;DHT22;56610;48.872;2.400;2023-09-19T07:00:23;18.50;99.90
69418;DHT22;56610;48.872;2.400;2023-09-19T07:02:59;18.60;99.90
69418;DHT22;56610;48.872;2.400;2023-09-19T07:05:30;18.40;99.90
69418;DHT22;56610;48.872;2.400;2023-09-19T07:07:57;18.50;99.90
69418;DHT22;56610;48.872;2.400;2023-09-19T07:10:26;18.40;99.90
69418;DHT22;56610;48.872;2.400;2023-09-19T07:12:59;18.40;99.90
69418;DHT22;56610;48.872;2.400;2023-09-19T07:15:25;18.50;99.90
69418;DHT22;56610;48.872;2.400;2023-09-19T07:17:54;18.40;99.90
69418;DHT22;56610;48.872;2.400;2023-09-19T07:20:22;18.40;99.90
69418;DHT22;56610;48.872;2.400;2023-09-19T07:22:49;18.50;99.90
69418;DHT22;56610;48.872;2.400;2023-09-19T07:25:16;18.50;99.90
69418;DHT22;56610;48.872;2.400;2023-09-19T07:28:01;18.70;99.90
69418;DHT22;56610;48.872;2.400;2023-09-19T07:30:28;18.80;99.90
69418;DHT22;56610;48.872;2.400;2023-09-19T07:32:54;18.90;99.90
69418;DHT22;56610;48.872;2.400;2023-09-19T07:35:20;18.90;99.90
69418;DHT22;56610;48.872;2.400;2023-09-19T07:37:46;18.90;99.90
69418;DHT22;56610;48.872;2.400;2023-09-19T07:40:15;19.00;99.90
69418;DHT22;56610;48.872;2.400;2023-09-19T07:42:41;19.00;99.90
69418;DHT22;56610;48.872;2.400;2023-09-19T07:45:10;19.10;99.90
69418;DHT22;56610;48.872;2.400;2023-09-19T07:47:38;19.20;99.90
69418;DHT22;56610;48.872;2.400;2023-09-19T07:50:04;19.10;99.90
69418;DHT22;56610;48.872;2.400;2023-09-19T07:52:32;19.20;99.90
69418;DHT22;56610;48.872;2.400;2023-09-19T07:54:58;19.20;99.90
69418;DHT22;56610;48.872;2.400;2023-09-19T07:57:27;19.10;99.90
69418;DHT22;56610;48.872;2.400;2023-09-19T07:59:55;19.10;99.90
69418;DHT22;56610;48.872;2.400;2023-09-19T08:02:21;19.20;99.90
69418;DHT22;56610;48.872;2.400;2023-09-19T08:04:48;19.20;99.90
69418;DHT22;56610;48.872;2.400;2023-09-19T08:07:15;19.30;99.90
69418;DHT22;56610;48.872;2.400;2023-09-19T08:09:41;19.30;99.90
69418;DHT22;56610;48.872;2.400;2023-09-19T08:12:07;19.30;99.90
69418;DHT22;56610;48.872;2.400;2023-09-19T08:14:36;19.40;99.90
69418;DHT22;56610;48.872;2.400;2023-09-19T08:17:05;19.30;99.90
69418;DHT22;56610;48.872;2.400;2023-09-19T08:19:45;19.30;99.90
69418;DHT22;56610;48.872;2.400;2023-09-19T08:22:11;19.30;99.90
69418;DHT22;56610;48.872;2.400;2023-09-19T08:24:37;19.30;99.90
69418;DHT22;56610;48.872;2.400;2023-09-19T08:27:04;19.30;99.90
69418;DHT22;56610;48.872;2.400;2023-09-19T08:29:31;19.20;99.90
69418;DHT22;56610;48.872;2.400;2023-09-19T08:31:57;19.20;99.90
69418;DHT22;56610;48.872;2.400;2023-09-19T08:34:26;19.10;99.90
69418;DHT22;56610;48.872;2.400;2023-09-19T08:36:54;19.20;99.90
69418;DHT22;56610;48.872;2.400;2023-09-19T08:39:23;19.20;99.90
69418;DHT22;56610;48.872;2.400;2023-09-19T08:41:49;19.10;99.90
69418;DHT22;56610;48.872;2.400;2023-09-19T08:44:15;19.10;99.90
69418;DHT22;56610;48.872;2.400;2023-09-19T08:46:41;19.10;99.90
69418;DHT22;56610;48.872;2.400;2023-09-19T08:49:27;19.00;99.90
69418;DHT22;56610;48.872;2.400;2023-09-19T08:52:25;19.00;99.90
69418;DHT22;56610;48.872;2.400;2023-09-19T08:54:59;19.00;99.90
69418;DHT22;56610;48.872;2.400;2023-09-19T08:57:33;18.90;99.90
69418;DHT22;56610;48.872;2.400;2023-09-19T09:00:02;19.00;99.90
69418;DHT22;56610;48.872;2.400;2023-09-19T09:02:31;19.10;99.90
69418;DHT22;56610;48.872;2.400;2023-09-19T09:05:01;19.20;99.90
69418;DHT22;56610;48.872;2.400;2023-09-19T09:07:30;19.10;99.90
69418;DHT22;56610;48.872;2.400;2023-09-19T09:10:00;19.20;99.90
69418;DHT22;56610;48.872;2.400;2023-09-19T09:12:25;19.30;99.90
69418;DHT22;56610;48.872;2.400;2023-09-19T09:14:51;19.30;99.90
69418;DHT22;56610;48.872;2.400;2023-09-19T09:17:18;19.40;99.90
69418;DHT22;56610;48.872;2.400;2023-09-19T09:19:46;19.40;99.90
69418;DHT22;56610;48.872;2.400;2023-09-19T09:22:13;19.50;99.90
69418;DHT22;56610;48.872;2.400;2023-09-19T09:24:58;19.40;99.90
69418;DHT22;56610;48.872;2.400;2023-09-19T09:27:24;19.50;99.90
69418;DHT22;56610;48.872;2.400;2023-09-19T09:29:51;19.30;99.90
69418;DHT22;56610;48.872;2.400;2023-09-19T09:32:24;19.30;99.90
69418;DHT22;56610;48.872;2.400;2023-09-19T09:34:52;19.30;99.90
69418;DHT22;56610;48.872;2.400;2023-09-19T09:37:19;19.40;99.90
69418;DHT22;56610;48.872;2.400;2023-09-19T09:39:55;19.50;99.90
69418;DHT22;56610;48.872;2.400;2023-09-19T09:42:35;19.60;99.90
69418;DHT22;56610;48.872;2.400;2023-09-19T09:45:20;19.70;99.90
69418;DHT22;56610;48.872;2.400;2023-09-19T09:47:54;19.80;99.90
69418;DHT22;56610;48.872;2.400;2023-09-19T09:50:27;19.80;99.90
69418;DHT22;56610;48.872;2.400;2023-09-19T09:53:29;19.80;99.90
69418;DHT22;56610;48.872;2.400;2023-09-19T09:56:02;19.80;99.90
69418;DHT22;56610;48.872;2.400;2023-09-19T09:58:31;19.80;99.90
69418;DHT22;56610;48.872;2.400;2023-09-19T10:00:58;19.80;99.90
69418;DHT22;56610;48.872;2.400;2023-09-19T10:06:04;19.90;99.90
69418;DHT22;56610;48.872;2.400;2023-09-19T10:09:03;19.90;99.90
69418;DHT22;56610;48.872;2.400;2023-09-19T10:11:44;19.90;99.90
69418;DHT22;56610;48.872;2.400;2023-09-19T10:14:15;20.00;99.90
69418;DHT22;56610;48.872;2.400;2023-09-19T10:16:51;20.00;99.90
69418;DHT22;56610;48.872;2.400;2023-09-19T10:19:33;20.20;99.90
69418;DHT22;56610;48.872;2.400;2023-09-19T10:22:02;20.30;99.90
69418;DHT22;56610;48.872;2.400;2023-09-19T10:24:28;20.40;99.90
69418;DHT22;56610;48.872;2.400;2023-09-19T10:26:57;20.50;99.90
69418;DHT22;56610;48.872;2.400;2023-09-19T10:29:23;20.60;99.90
69418;DHT22;56610;48.872;2.400;2023-09-19T10:31:52;20.70;99.90
69418;DHT22;56610;48.872;2.400;2023-09-19T10:34:19;20.70;99.90
69418;DHT22;56610;48.872;2.400;2023-09-19T10:36:46;20.80;99.90
69418;DHT22;56610;48.872;2.400;2023-09-19T10:39:15;20.70;99.90
69418;DHT22;56610;48.872;2.400;2023-09-19T10:41:54;20.90;99.90
69418;DHT22;56610;48.872;2.400;2023-09-19T10:44:24;20.90;99.90
69418;DHT22;56610;48.872;2.400;2023-09-19T10:46:52;21.00;99.90
69418;DHT22;56610;48.872;2.400;2023-09-19T10:49:19;21.00;99.90
69418;DHT22;56610;48.872;2.400;2023-09-19T10:51:46;21.10;99.90
69418;DHT22;56610;48.872;2.400;2023-09-19T10:54:17;21.20;99.90
69418;DHT22;56610;48.872;2.400;2023-09-19T10:56:49;21.30;99.90
69418;DHT22;56610;48.872;2.400;2023-09-19T10:59:17;21.30;99.90
69418;DHT22;56610;48.872;2.400;2023-09-19T11:01:54;21.40;99.90
69418;DHT22;56610;48.872;2.400;2023-09-19T11:04:34;21.40;99.90
69418;DHT22;56610;48.872;2.400;2023-09-19T11:07:09;21.60;99.90
69418;DHT22;56610;48.872;2.400;2023-09-19T11:09:51;21.70;99.90
69418;DHT22;56610;48.872;2.400;2023-09-19T11:15:03;21.90;99.90
69418;DHT22;56610;48.872;2.400;2023-09-19T11:17:43;21.70;99.90
69418;DHT22;56610;48.872;2.400;2023-09-19T11:20:19;21.70;99.90
69418;DHT22;56610;48.872;2.400;2023-09-19T11:30:35;21.90;99.90
69418;DHT22;56610;48.872;2.400;2023-09-19T11:41:37;22.00;99.90
69418;DHT22;56610;48.872;2.400;2023-09-19T11:49:26;22.10;99.90
69418;DHT22;56610;48.872;2.400;2023-09-19T11:52:00;22.20;99.90
69418;DHT22;56610;48.872;2.400;2023-09-19T11:54:27;22.20;99.90
69418;DHT22;56610;48.872;2.400;2023-09-19T11:56:58;22.10;99.90
69418;DHT22;56610;48.872;2.400;2023-09-19T11:59:25;22.20;99.90
69418;DHT22;56610;48.872;2.400;2023-09-19T12:01:57;22.10;99.90
69418;DHT22;56610;48.872;2.400;2023-09-19T12:04:39;22.20;99.90
69418;DHT22;56610;48.872;2.400;2023-09-19T12:07:11;22.30;99.90
69418;DHT22;56610;48.872;2.400;2023-09-19T12:29:53;21.90;99.90
69418;DHT22;56610;48.872;2.400;2023-09-19T12:32:36;21.80;99.90
69418;DHT22;56610;48.872;2.400;2023-09-19T12:35:06;21.80;99.90
69418;DHT22;56610;48.872;2.400;2023-09-19T12:37:36;21.90;99.90
69418;DHT22;56610;48.872;2.400;2023-09-19T12:40:07;22.00;99.90
69418;DHT22;56610;48.872;2.400;2023-09-19T12:42:54;21.90;99.90
69418;DHT22;56610;48.872;2.400;2023-09-19T12:45:30;21.80;99.90
69418;DHT22;56610;48.872;2.400;2023-09-19T12:48:18;21.90;99.90
69418;DHT22;56610;48.872;2.400;2023-09-19T12:51:13;22.00;99.90
69418;DHT22;56610;48.872;2.400;2023-09-19T12:53:40;21.90;99.90
69418;DHT22;56610;48.872;2.400;2023-09-19T12:56:08;21.90;99.90
69418;DHT22;56610;48.872;2.400;2023-09-19T12:58:48;21.80;99.90
69418;DHT22;56610;48.872;2.400;2023-09-19T13:01:15;22.10;99.90
69418;DHT22;56610;48.872;2.400;2023-09-19T13:03:41;22.30;99.90
69418;DHT22;56610;48.872;2.400;2023-09-19T13:06:07;22.50;99.90
69418;DHT22;56610;48.872;2.400;2023-09-19T13:08:37;22.50;99.90
69418;DHT22;56610;48.872;2.400;2023-09-19T13:13:41;22.50;99.90
69418;DHT22;56610;48.872;2.400;2023-09-19T13:16:07;22.50;99.90
69418;DHT22;56610;48.872;2.400;2023-09-19T13:18:42;22.50;99.90
69418;DHT22;56610;48.872;2.400;2023-09-19T13:21:10;22.40;99.90
69418;DHT22;56610;48.872;2.400;2023-09-19T13:23:43;22.50;99.90
69418;DHT22;56610;48.872;2.400;2023-09-19T13:26:12;22.60;99.90
69418;DHT22;56610;48.872;2.400;2023-09-19T13:28:38;22.60;99.90
69418;DHT22;56610;48.872;2.400;2023-09-19T13:31:04;22.80;99.90
69418;DHT22;56610;48.872;2.400;2023-09-19T13:33:30;22.90;99.90
69418;DHT22;56610;48.872;2.400;2023-09-19T13:35:56;23.20;99.90
69418;DHT22;56610;48.872;2.400;2023-09-19T13:38:22;23.30;99.90
69418;DHT22;56610;48.872;2.400;2023-09-19T13:40:49;23.50;99.90
69418;DHT22;56610;48.872;2.400;2023-09-19T13:43:17;23.70;99.90
69418;DHT22;56610;48.872;2.400;2023-09-19T13:45:43;23.70;99.90
69418;DHT22;56610;48.872;2.400;2023-09-19T13:48:08;23.80;99.90
69418;DHT22;56610;48.872;2.400;2023-09-19T13:50:37;24.00;99.90
69418;DHT22;56610;48.872;2.400;2023-09-19T13:53:10;24.20;99.90
69418;DHT22;56610;48.872;2.400;2023-09-19T13:55:37;24.20;99.90
69418;DHT22;56610;48.872;2.400;2023-09-19T13:58:03;24.40;99.90
69418;DHT22;56610;48.872;2.400;2023-09-19T14:00:32;24.50;99.90
69418;DHT22;56610;48.872;2.400;2023-09-19T14:03:00;24.70;99.90
69418;DHT22;56610;48.872;2.400;2023-09-19T14:05:26;25.00;99.90
69418;DHT22;56610;48.872;2.400;2023-09-19T14:07:53;24.90;99.90
69418;DHT22;56610;48.872;2.400;2023-09-19T14:10:21;25.10;99.90
69418;DHT22;56610;48.872;2.400;2023-09-19T14:12:47;25.00;99.90
69418;DHT22;56610;48.872;2.400;2023-09-19T14:15:13;25.10;99.90
69418;DHT22;56610;48.872;2.400;2023-09-19T14:17:39;25.30;99.90
69418;DHT22;56610;48.872;2.400;2023-09-19T14:20:08;25.20;99.90
69418;DHT22;56610;48.872;2.400;2023-09-19T14:22:35;25.10;99.90
69418;DHT22;56610;48.872;2.400;2023-09-19T14:25:05;25.10;99.90
69418;DHT22;56610;48.872;2.400;2023-09-19T14:27:30;25.10;99.90
69418;DHT22;56610;48.872;2.400;2023-09-19T14:29:56;25.10;99.90
69418;DHT22;56610;48.872;2.400;2023-09-19T14:32:25;24.60;99.90
69418;DHT22;56610;48.872;2.400;2023-09-19T14:34:51;24.40;99.90
69418;DHT22;56610;48.872;2.400;2023-09-19T14:37:18;24.30;99.90
69418;DHT22;56610;48.872;2.400;2023-09-19T14:39:43;24.30;99.90
69418;DHT22;56610;48.872;2.400;2023-09-19T14:42:12;24.20;99.90
69418;DHT22;56610;48.872;2.400;2023-09-19T14:44:40;24.20;99.90
69418;DHT22;56610;48.872;2.400;2023-09-19T14:47:05;24.10;99.90
69418;DHT22;56610;48.872;2.400;2023-09-19T14:49:36;23.90;99.90
69418;DHT22;56610;48.872;2.400;2023-09-19T14:52:07;23.90;99.90
69418;DHT22;56610;48.872;2.400;2023-09-19T14:54:33;23.80;99.90
69418;DHT22;56610;48.872;2.400;2023-09-19T14:56:59;23.80;99.90
69418;DHT22;56610;48.872;2.400;2023-09-19T14:59:34;23.70;99.90
69418;DHT22;56610;48.872;2.400;2023-09-19T15:02:06;23.80;99.90
69418;DHT22;56610;48.872;2.400;2023-09-19T15:04:32;23.70;99.90
69418;DHT22;56610;48.872;2.400;2023-09-19T15:06:59;23.80;99.90
69418;DHT22;56610;48.872;2.400;2023-09-19T15:09:25;24.10;99.90
69418;DHT22;56610;48.872;2.400;2023-09-19T15:11:55;24.00;99.90
69418;DHT22;56610;48.872;2.400;2023-09-19T15:14:24;23.90;99.90
69418;DHT22;56610;48.872;2.400;2023-09-19T15:16:53;23.70;99.90
69418;DHT22;56610;48.872;2.400;2023-09-19T15:19:19;23.60;99.90
69418;DHT22;56610;48.872;2.400;2023-09-19T15:21:44;23.60;99.90
69418;DHT22;56610;48.872;2.400;2023-09-19T15:24:10;23.50;99.90
69418;DHT22;56610;48.872;2.400;2023-09-19T15:26:36;23.40;99.90
69418;DHT22;56610;48.872;2.400;2023-09-19T15:29:06;23.40;99.90
69418;DHT22;56610;48.872;2.400;2023-09-19T15:31:32;23.40;99.90
69418;DHT22;56610;48.872;2.400;2023-09-19T15:33:58;23.50;99.90
69418;DHT22;56610;48.872;2.400;2023-09-19T15:36:24;23.50;99.90
69418;DHT22;56610;48.872;2.400;2023-09-19T15:39:00;23.60;99.90
69418;DHT22;56610;48.872;2.400;2023-09-19T15:41:31;23.60;99.90
69418;DHT22;56610;48.872;2.400;2023-09-19T15:43:57;23.60;99.90
69418;DHT22;56610;48.872;2.400;2023-09-19T15:46:27;23.50;99.90
69418;DHT22;56610;48.872;2.400;2023-09-19T15:48:54;23.50;99.90
69418;DHT22;56610;48.872;2.400;2023-09-19T15:51:23;23.50;99.90
69418;DHT22;56610;48.872;2.400;2023-09-19T15:53:50;23.50;99.90
69418;DHT22;56610;48.872;2.400;2023-09-19T15:56:17;23.60;99.90
69418;DHT22;56610;48.872;2.400;2023-09-19T15:58:47;23.60;99.90
69418;DHT22;56610;48.872;2.400;2023-09-19T16:01:14;23.70;99.90
69418;DHT22;56610;48.872;2.400;2023-09-19T16:03:51;23.70;99.90
69418;DHT22;56610;48.872;2.400;2023-09-19T16:06:27;23.70;99.90
69418;DHT22;56610;48.872;2.400;2023-09-19T16:08:56;23.70;99.90
69418;DHT22;56610;48.872;2.400;2023-09-19T16:11:23;23.70;99.90
69418;DHT22;56610;48.872;2.400;2023-09-19T16:13:50;23.70;99.90
69418;DHT22;56610;48.872;2.400;2023-09-19T16:16:17;23.60;99.90
69418;DHT22;56610;48.872;2.400;2023-09-19T16:21:14;23.70;99.90
69418;DHT22;56610;48.872;2.400;2023-09-19T16:23:41;23.80;99.90
69418;DHT22;56610;48.872;2.400;2023-09-19T16:26:09;23.80;99.90
69418;DHT22;56610;48.872;2.400;2023-09-19T16:28:36;23.70;99.90
69418;DHT22;56610;48.872;2.400;2023-09-19T16:31:06;23.70;99.90
69418;DHT22;56610;48.872;2.400;2023-09-19T16:33:39;23.50;99.90
69418;DHT22;56610;48.872;2.400;2023-09-19T16:36:09;23.60;99.90
69418;DHT22;56610;48.872;2.400;2023-09-19T16:38:36;23.50;99.90
69418;DHT22;56610;48.872;2.400;2023-09-19T16:41:06;23.40;99.90
69418;DHT22;56610;48.872;2.400;2023-09-19T16:43:32;23.30;99.90
69418;DHT22;56610;48.872;2.400;2023-09-19T16:46:05;23.30;99.90
69418;DHT22;56610;48.872;2.400;2023-09-19T16:48:35;23.40;99.90